sensor_id;sensor_type;location;lat;lon;timestamp;temperature;humidity
85940;DHT22;76505;46.706;12.340;2024-03-08T00:00:24;7.1;59.8
85940;DHT22;76505;46.706;12.340;2024-03-08T00:01:24;7.2;59.7
85940;DHT22;76505;46.706;12.340;2024-03-08T00:02:24;7.0;59.9
85940;DHT22;76505;46.706;12.340;2024-03-08T00:03:24;7.0;60.4
85940;DHT22;76505;46.706;12.340;2024-03-08T00:04:24;7.0;60.4
85940;DHT22;76505;46.706;12.340;2024-03-08T00:05:24;7.0;60.4
85940;DHT22;76505;46.706;12.340;2024-03-08T00:06:25;7.0;60.7
85940;DHT22;76505;46.706;12.340;2024-03-08T00:07:24;7.1;60.5
85940;DHT22;76505;46.706;12.340;2024-03-08T00:08:24;6.9;60.5
85940;DHT22;76505;46.706;12.340;2024-03-08T00:09:24;7.1;60.3
85940;DHT22;76505;46.706;12.340;2024-03-08T00:10:24;7.0;60.3
85940;DHT22;76505;46.706;12.340;2024-03-08T00:11:26;7.0;60.1
85940;DHT22;76505;46.706;12.340;2024-03-08T00:12:26;7.1;60.0
85940;DHT22;76505;46.706;12.340;2024-03-08T00:13:25;7.1;60.0
85940;DHT22;76505;46.706;12.340;2024-03-08T00:14:24;7.1;59.8
85940;DHT22;76505;46.706;12.340;2024-03-08T00:15:24;7.1;59.9
85940;DHT22;76505;46.706;12.340;2024-03-08T00:16:24;7.1;59.9
85940;DHT22;76505;46.706;12.340;2024-03-08T00:17:24;7.2;60.0
85940;DHT22;76505;46.706;12.340;2024-03-08T00:18:24;7.1;59.8
85940;DHT22;76505;46.706;12.340;2024-03-08T00:19:24;7.1;59.9
85940;DHT22;76505;46.706;12.340;2024-03-08T00:20:24;7.1;59.9
85940;DHT22;76505;46.706;12.340;2024-03-08T00:21:25;7.1;59.9
85940;DHT22;76505;46.706;12.340;2024-03-08T00:22:24;7.2;60.2
85940;DHT22;76505;46.706;12.340;2024-03-08T00:23:24;7.1;60.1
85940;DHT22;76505;46.706;12.340;2024-03-08T00:24:25;7.1;59.9
85940;DHT22;76505;46.706;12.340;2024-03-08T00:25:24;7.1;60.1
85940;DHT22;76505;46.706;12.340;2024-03-08T00:26:24;7.0;60.1
85940;DHT22;76505;46.706;12.340;2024-03-08T00:27:25;7.1;59.7
85940;DHT22;76505;46.706;12.340;2024-03-08T00:28:25;7.1;59.6
85940;DHT22;76505;46.706;12.340;2024-03-08T00:29:24;7.2;59.5
85940;DHT22;76505;46.706;12.340;2024-03-08T00:30:25;7.1;59.4
85940;DHT22;76505;46.706;12.340;2024-03-08T00:31:24;7.2;59.6
85940;DHT22;76505;46.706;12.340;2024-03-08T00:32:25;7.1;59.4
85940;DHT22;76505;46.706;12.340;2024-03-08T00:33:24;7.2;59.5
85940;DHT22;76505;46.706;12.340;2024-03-08T00:34:24;7.2;59.0
85940;DHT22;76505;46.706;12.340;2024-03-08T00:35:24;7.2;59.3
85940;DHT22;76505;46.706;12.340;2024-03-08T00:36:25;7.1;59.3
85940;DHT22;76505;46.706;12.340;2024-03-08T00:37:24;7.2;59.5
85940;DHT22;76505;46.706;12.340;2024-03-08T00:38:24;7.1;59.6
85940;DHT22;76505;46.706;12.340;2024-03-08T00:39:24;7.2;59.3
85940;DHT22;76505;46.706;12.340;2024-03-08T00:40:24;7.1;59.4
85940;DHT22;76505;46.706;12.340;2024-03-08T00:41:26;7.0;59.3
85940;DHT22;76505;46.706;12.340;2024-03-08T00:42:24;7.0;59.2
85940;DHT22;76505;46.706;12.340;2024-03-08T00:43:24;7.0;59.5
85940;DHT22;76505;46.706;12.340;2024-03-08T00:44:25;7.1;59.4
85940;DHT22;76505;46.706;12.340;2024-03-08T00:45:24;7.0;59.3
85940;DHT22;76505;46.706;12.340;2024-03-08T00:46:24;7.1;59.3
85940;DHT22;76505;46.706;12.340;2024-03-08T00:47:24;7.1;59.5
85940;DHT22;76505;46.706;12.340;2024-03-08T00:48:24;7.1;59.3
85940;DHT22;76505;46.706;12.340;2024-03-08T00:49:24;7.1;59.5
85940;DHT22;76505;46.706;12.340;2024-03-08T00:50:24;6.9;59.5
85940;DHT22;76505;46.706;12.340;2024-03-08T00:51:24;6.9;59.6
85940;DHT22;76505;46.706;12.340;2024-03-08T00:52:24;7.0;59.6
85940;DHT22;76505;46.706;12.340;2024-03-08T00:53:24;7.0;59.6
85940;DHT22;76505;46.706;12.340;2024-03-08T00:54:24;7.0;59.4
85940;DHT22;76505;46.706;12.340;2024-03-08T00:55:24;6.8;59.5
85940;DHT22;76505;46.706;12.340;2024-03-08T00:56:25;6.8;59.5
85940;DHT22;76505;46.706;12.340;2024-03-08T00:57:24;6.9;59.5
85940;DHT22;76505;46.706;12.340;2024-03-08T00:58:24;6.8;59.9
85940;DHT22;76505;46.706;12.340;2024-03-08T00:59:24;6.8;59.8
85940;DHT22;76505;46.706;12.340;2024-03-08T01:00:24;6.9;59.6
85940;DHT22;76505;46.706;12.340;2024-03-08T01:01:25;6.9;59.6
85940;DHT22;76505;46.706;12.340;2024-03-08T01:02:24;6.9;59.5
85940;DHT22;76505;46.706;12.340;2024-03-08T01:03:24;6.9;59.5
85940;DHT22;76505;46.706;12.340;2024-03-08T01:04:26;6.9;59.3
85940;DHT22;76505;46.706;12.340;2024-03-08T01:05:25;6.9;59.7
85940;DHT22;76505;46.706;12.340;2024-03-08T01:06:24;6.9;59.7
85940;DHT22;76505;46.706;12.340;2024-03-08T01:07:24;6.9;59.5
85940;DHT22;76505;46.706;12.340;2024-03-08T01:08:24;6.8;59.3
85940;DHT22;76505;46.706;12.340;2024-03-08T01:09:25;6.9;59.5
85940;DHT22;76505;46.706;12.340;2024-03-08T01:10:24;6.9;59.5
85940;DHT22;76505;46.706;12.340;2024-03-08T01:11:24;6.9;59.5
85940;DHT22;76505;46.706;12.340;2024-03-08T01:12:24;6.9;59.4
85940;DHT22;76505;46.706;12.340;2024-03-08T01:13:24;7.0;59.5
85940;DHT22;76505;46.706;12.340;2024-03-08T01:14:25;6.9;59.5
85940;DHT22;76505;46.706;12.340;2024-03-08T01:15:24;6.9;59.7
85940;DHT22;76505;46.706;12.340;2024-03-08T01:16:24;6.9;59.4
85940;DHT22;76505;46.706;12.340;2024-03-08T01:17:24;6.8;59.6
85940;DHT22;76505;46.706;12.340;2024-03-08T01:18:24;6.9;59.5
85940;DHT22;76505;46.706;12.340;2024-03-08T01:19:24;6.8;59.3
85940;DHT22;76505;46.706;12.340;2024-03-08T01:20:24;6.7;59.5
85940;DHT22;76505;46.706;12.340;2024-03-08T01:21:24;6.9;59.6
85940;DHT22;76505;46.706;12.340;2024-03-08T01:22:24;6.8;59.5
85940;DHT22;76505;46.706;12.340;2024-03-08T01:23:24;6.9;59.4
85940;DHT22;76505;46.706;12.340;2024-03-08T01:24:24;6.8;59.4
85940;DHT22;76505;46.706;12.340;2024-03-08T01:25:24;6.9;59.7
85940;DHT22;76505;46.706;12.340;2024-03-08T01:26:24;6.9;59.6
85940;DHT22;76505;46.706;12.340;2024-03-08T01:27:25;6.9;59.7
85940;DHT22;76505;46.706;12.340;2024-03-08T01:28:25;6.9;59.3
85940;DHT22;76505;46.706;12.340;2024-03-08T01:29:24;6.9;59.5
85940;DHT22;76505;46.706;12.340;2024-03-08T01:30:24;6.8;59.7
85940;DHT22;76505;46.706;12.340;2024-03-08T01:31:24;6.9;59.6
85940;DHT22;76505;46.706;12.340;2024-03-08T01:32:24;6.8;59.6
85940;DHT22;76505;46.706;12.340;2024-03-08T01:33:25;6.9;59.5
85940;DHT22;76505;46.706;12.340;2024-03-08T01:34:24;6.9;59.6
85940;DHT22;76505;46.706;12.340;2024-03-08T01:35:24;7.0;59.5
85940;DHT22;76505;46.706;12.340;2024-03-08T01:36:25;6.9;59.5
85940;DHT22;76505;46.706;12.340;2024-03-08T01:37:24;6.9;59.7
85940;DHT22;76505;46.706;12.340;2024-03-08T01:38:24;6.8;59.6
85940;DHT22;76505;46.706;12.340;2024-03-08T01:39:24;6.8;59.6
85940;DHT22;76505;46.706;12.340;2024-03-08T01:40:24;6.9;59.6
85940;DHT22;76505;46.706;12.340;2024-03-08T01:41:24;6.9;59.4
85940;DHT22;76505;46.706;12.340;2024-03-08T01:42:24;6.8;59.3
85940;DHT22;76505;46.706;12.340;2024-03-08T01:43:26;6.9;59.3
85940;DHT22;76505;46.706;12.340;2024-03-08T01:44:24;6.8;59.5
85940;DHT22;76505;46.706;12.340;2024-03-08T01:45:24;6.9;59.6
85940;DHT22;76505;46.706;12.340;2024-03-08T01:46:24;6.9;59.4
85940;DHT22;76505;46.706;12.340;2024-03-08T01:47:24;6.8;59.6
85940;DHT22;76505;46.706;12.340;2024-03-08T01:48:25;6.8;59.6
85940;DHT22;76505;46.706;12.340;2024-03-08T01:49:26;6.8;59.8
85940;DHT22;76505;46.706;12.340;2024-03-08T01:50:24;6.9;59.8
85940;DHT22;76505;46.706;12.340;2024-03-08T01:51:24;6.8;59.7
85940;DHT22;76505;46.706;12.340;2024-03-08T01:52:25;6.9;59.7
85940;DHT22;76505;46.706;12.340;2024-03-08T01:53:24;6.9;59.4
85940;DHT22;76505;46.706;12.340;2024-03-08T01:54:25;6.9;59.6
85940;DHT22;76505;46.706;12.340;2024-03-08T01:55:24;6.9;59.2
85940;DHT22;76505;46.706;12.340;2024-03-08T01:56:25;6.9;59.3
85940;DHT22;76505;46.706;12.340;2024-03-08T01:57:25;7.0;59.2
85940;DHT22;76505;46.706;12.340;2024-03-08T01:58:24;6.9;59.3
85940;DHT22;76505;46.706;12.340;2024-03-08T01:59:24;6.9;59.3
85940;DHT22;76505;46.706;12.340;2024-03-08T02:00:25;6.8;59.5
85940;DHT22;76505;46.706;12.340;2024-03-08T02:01:25;6.8;59.3
85940;DHT22;76505;46.706;12.340;2024-03-08T02:02:24;6.9;59.4
85940;DHT22;76505;46.706;12.340;2024-03-08T02:03:24;6.8;59.4
85940;DHT22;76505;46.706;12.340;2024-03-08T02:04:25;6.8;59.3
85940;DHT22;76505;46.706;12.340;2024-03-08T02:05:24;6.9;59.5
85940;DHT22;76505;46.706;12.340;2024-03-08T02:06:24;6.8;58.9
85940;DHT22;76505;46.706;12.340;2024-03-08T02:07:24;6.8;58.9
85940;DHT22;76505;46.706;12.340;2024-03-08T02:08:24;6.8;59.2
85940;DHT22;76505;46.706;12.340;2024-03-08T02:09:25;6.9;59.2
85940;DHT22;76505;46.706;12.340;2024-03-08T02:10:24;6.8;59.2
85940;DHT22;76505;46.706;12.340;2024-03-08T02:11:24;6.8;59.2
85940;DHT22;76505;46.706;12.340;2024-03-08T02:12:24;6.8;59.3
85940;DHT22;76505;46.706;12.340;2024-03-08T02:13:24;6.8;59.1
85940;DHT22;76505;46.706;12.340;2024-03-08T02:14:24;6.8;59.1
85940;DHT22;76505;46.706;12.340;2024-03-08T02:15:24;6.8;59.2
85940;DHT22;76505;46.706;12.340;2024-03-08T02:16:24;6.8;59.2
85940;DHT22;76505;46.706;12.340;2024-03-08T02:17:24;6.8;59.1
85940;DHT22;76505;46.706;12.340;2024-03-08T02:18:24;6.8;59.2
85940;DHT22;76505;46.706;12.340;2024-03-08T02:19:24;6.8;59.2
85940;DHT22;76505;46.706;12.340;2024-03-08T02:20:24;6.8;59.3
85940;DHT22;76505;46.706;12.340;2024-03-08T02:21:24;6.7;59.5
85940;DHT22;76505;46.706;12.340;2024-03-08T02:22:24;6.7;59.4
85940;DHT22;76505;46.706;12.340;2024-03-08T02:23:26;6.7;59.3
85940;DHT22;76505;46.706;12.340;2024-03-08T02:24:24;6.7;59.6
85940;DHT22;76505;46.706;12.340;2024-03-08T02:25:24;6.6;59.5
85940;DHT22;76505;46.706;12.340;2024-03-08T02:26:24;6.6;59.7
85940;DHT22;76505;46.706;12.340;2024-03-08T02:27:24;6.5;60.0
85940;DHT22;76505;46.706;12.340;2024-03-08T02:28:25;6.6;60.0
85940;DHT22;76505;46.706;12.340;2024-03-08T02:29:24;6.6;59.9
85940;DHT22;76505;46.706;12.340;2024-03-08T02:30:24;6.6;60.1
85940;DHT22;76505;46.706;12.340;2024-03-08T02:31:24;6.6;59.9
85940;DHT22;76505;46.706;12.340;2024-03-08T02:32:24;6.5;59.9
85940;DHT22;76505;46.706;12.340;2024-03-08T02:33:25;6.5;60.0
85940;DHT22;76505;46.706;12.340;2024-03-08T02:34:24;6.4;60.3
85940;DHT22;76505;46.706;12.340;2024-03-08T02:35:24;6.3;60.2
85940;DHT22;76505;46.706;12.340;2024-03-08T02:36:24;6.4;60.5
85940;DHT22;76505;46.706;12.340;2024-03-08T02:37:24;6.3;60.7
85940;DHT22;76505;46.706;12.340;2024-03-08T02:38:24;6.3;60.7
85940;DHT22;76505;46.706;12.340;2024-03-08T02:39:24;6.3;60.7
85940;DHT22;76505;46.706;12.340;2024-03-08T02:40:24;6.3;60.6
85940;DHT22;76505;46.706;12.340;2024-03-08T02:41:24;6.4;60.4
85940;DHT22;76505;46.706;12.340;2024-03-08T02:42:24;6.3;60.5
85940;DHT22;76505;46.706;12.340;2024-03-08T02:43:25;6.3;60.4
85940;DHT22;76505;46.706;12.340;2024-03-08T02:44:24;6.3;60.7
85940;DHT22;76505;46.706;12.340;2024-03-08T02:45:25;6.3;60.1
85940;DHT22;76505;46.706;12.340;2024-03-08T02:46:25;6.4;60.2
85940;DHT22;76505;46.706;12.340;2024-03-08T02:47:24;6.3;60.4
85940;DHT22;76505;46.706;12.340;2024-03-08T02:48:24;6.4;60.2
85940;DHT22;76505;46.706;12.340;2024-03-08T02:49:24;6.2;60.5
85940;DHT22;76505;46.706;12.340;2024-03-08T02:50:26;6.3;60.7
85940;DHT22;76505;46.706;12.340;2024-03-08T02:51:27;6.3;60.3
85940;DHT22;76505;46.706;12.340;2024-03-08T02:52:24;6.3;60.2
85940;DHT22;76505;46.706;12.340;2024-03-08T02:53:25;6.3;60.3
85940;DHT22;76505;46.706;12.340;2024-03-08T02:54:24;6.3;60.6
85940;DHT22;76505;46.706;12.340;2024-03-08T02:55:27;6.3;60.7
85940;DHT22;76505;46.706;12.340;2024-03-08T02:56:24;6.4;60.5
85940;DHT22;76505;46.706;12.340;2024-03-08T02:57:24;6.3;60.5
85940;DHT22;76505;46.706;12.340;2024-03-08T02:58:30;6.4;60.7
85940;DHT22;76505;46.706;12.340;2024-03-08T02:59:24;6.3;60.7
85940;DHT22;76505;46.706;12.340;2024-03-08T03:00:25;6.3;60.5
85940;DHT22;76505;46.706;12.340;2024-03-08T03:01:24;6.3;60.5
85940;DHT22;76505;46.706;12.340;2024-03-08T03:02:24;6.3;60.5
85940;DHT22;76505;46.706;12.340;2024-03-08T03:03:24;6.4;60.2
85940;DHT22;76505;46.706;12.340;2024-03-08T03:04:24;6.3;60.2
85940;DHT22;76505;46.706;12.340;2024-03-08T03:05:24;6.2;60.4
85940;DHT22;76505;46.706;12.340;2024-03-08T03:06:24;6.2;60.5
85940;DHT22;76505;46.706;12.340;2024-03-08T03:07:24;6.2;60.6
85940;DHT22;76505;46.706;12.340;2024-03-08T03:08:25;6.1;60.7
85940;DHT22;76505;46.706;12.340;2024-03-08T03:09:28;6.1;60.9
85940;DHT22;76505;46.706;12.340;2024-03-08T03:10:24;6.2;60.5
85940;DHT22;76505;46.706;12.340;2024-03-08T03:11:24;6.2;60.5
85940;DHT22;76505;46.706;12.340;2024-03-08T03:12:24;6.1;60.5
85940;DHT22;76505;46.706;12.340;2024-03-08T03:13:24;6.3;60.3
85940;DHT22;76505;46.706;12.340;2024-03-08T03:14:24;6.3;60.3
85940;DHT22;76505;46.706;12.340;2024-03-08T03:15:24;6.3;60.3
85940;DHT22;76505;46.706;12.340;2024-03-08T03:16:24;6.2;60.5
85940;DHT22;76505;46.706;12.340;2024-03-08T03:17:25;6.3;60.3
85940;DHT22;76505;46.706;12.340;2024-03-08T03:18:24;6.3;60.0
85940;DHT22;76505;46.706;12.340;2024-03-08T03:19:24;6.3;60.3
85940;DHT22;76505;46.706;12.340;2024-03-08T03:20:27;6.2;60.3
85940;DHT22;76505;46.706;12.340;2024-03-08T03:21:24;6.3;60.3
85940;DHT22;76505;46.706;12.340;2024-03-08T03:22:26;6.2;60.2
85940;DHT22;76505;46.706;12.340;2024-03-08T03:23:24;6.2;60.2
85940;DHT22;76505;46.706;12.340;2024-03-08T03:24:24;6.2;60.5
85940;DHT22;76505;46.706;12.340;2024-03-08T03:25:26;6.1;60.8
85940;DHT22;76505;46.706;12.340;2024-03-08T03:26:24;6.0;61.0
85940;DHT22;76505;46.706;12.340;2024-03-08T03:27:25;6.1;61.0
85940;DHT22;76505;46.706;12.340;2024-03-08T03:28:24;6.0;60.9
85940;DHT22;76505;46.706;12.340;2024-03-08T03:29:26;6.0;60.5
85940;DHT22;76505;46.706;12.340;2024-03-08T03:30:26;5.9;60.7
85940;DHT22;76505;46.706;12.340;2024-03-08T03:31:26;5.9;60.6
85940;DHT22;76505;46.706;12.340;2024-03-08T03:32:24;5.8;60.9
85940;DHT22;76505;46.706;12.340;2024-03-08T03:33:24;5.7;60.9
85940;DHT22;76505;46.706;12.340;2024-03-08T03:34:24;5.7;60.7
85940;DHT22;76505;46.706;12.340;2024-03-08T03:35:25;5.7;61.1
85940;DHT22;76505;46.706;12.340;2024-03-08T03:36:25;5.7;61.4
85940;DHT22;76505;46.706;12.340;2024-03-08T03:37:24;5.7;61.5
85940;DHT22;76505;46.706;12.340;2024-03-08T03:38:26;5.8;61.1
85940;DHT22;76505;46.706;12.340;2024-03-08T03:39:24;5.8;60.8
85940;DHT22;76505;46.706;12.340;2024-03-08T03:40:26;5.9;60.8
85940;DHT22;76505;46.706;12.340;2024-03-08T03:41:24;5.8;60.7
85940;DHT22;76505;46.706;12.340;2024-03-08T03:42:25;6.0;60.7
85940;DHT22;76505;46.706;12.340;2024-03-08T03:43:24;5.9;60.2
85940;DHT22;76505;46.706;12.340;2024-03-08T03:44:24;6.0;59.8
85940;DHT22;76505;46.706;12.340;2024-03-08T03:45:24;6.0;60.0
85940;DHT22;76505;46.706;12.340;2024-03-08T03:46:24;6.0;60.0
85940;DHT22;76505;46.706;12.340;2024-03-08T03:47:24;6.1;60.1
85940;DHT22;76505;46.706;12.340;2024-03-08T03:48:24;6.1;60.3
85940;DHT22;76505;46.706;12.340;2024-03-08T03:49:24;6.1;60.5
85940;DHT22;76505;46.706;12.340;2024-03-08T03:50:24;6.1;60.3
85940;DHT22;76505;46.706;12.340;2024-03-08T03:51:25;6.0;60.4
85940;DHT22;76505;46.706;12.340;2024-03-08T03:52:24;6.0;60.4
85940;DHT22;76505;46.706;12.340;2024-03-08T03:53:26;6.1;60.6
85940;DHT22;76505;46.706;12.340;2024-03-08T03:54:24;6.1;60.8
85940;DHT22;76505;46.706;12.340;2024-03-08T03:55:24;6.1;60.8
85940;DHT22;76505;46.706;12.340;2024-03-08T03:56:25;6.0;60.9
85940;DHT22;76505;46.706;12.340;2024-03-08T03:57:24;6.1;60.9
85940;DHT22;76505;46.706;12.340;2024-03-08T03:58:24;6.0;60.9
85940;DHT22;76505;46.706;12.340;2024-03-08T03:59:25;5.9;61.0
85940;DHT22;76505;46.706;12.340;2024-03-08T04:00:28;6.0;61.0
85940;DHT22;76505;46.706;12.340;2024-03-08T04:01:24;6.0;60.9
85940;DHT22;76505;46.706;12.340;2024-03-08T04:02:29;6.0;61.2
85940;DHT22;76505;46.706;12.340;2024-03-08T04:03:24;5.9;61.2
85940;DHT22;76505;46.706;12.340;2024-03-08T04:04:25;5.9;61.0
85940;DHT22;76505;46.706;12.340;2024-03-08T04:05:24;5.9;61.2
85940;DHT22;76505;46.706;12.340;2024-03-08T04:06:25;5.9;61.0
85940;DHT22;76505;46.706;12.340;2024-03-08T04:07:25;6.0;61.2
85940;DHT22;76505;46.706;12.340;2024-03-08T04:08:24;5.9;61.1
85940;DHT22;76505;46.706;12.340;2024-03-08T04:09:24;5.9;61.2
85940;DHT22;76505;46.706;12.340;2024-03-08T04:10:24;6.0;61.2
85940;DHT22;76505;46.706;12.340;2024-03-08T04:11:24;6.0;61.1
85940;DHT22;76505;46.706;12.340;2024-03-08T04:12:24;6.0;61.2
85940;DHT22;76505;46.706;12.340;2024-03-08T04:13:24;6.0;61.1
85940;DHT22;76505;46.706;12.340;2024-03-08T04:14:24;6.0;61.0
85940;DHT22;76505;46.706;12.340;2024-03-08T04:15:24;6.0;60.6
85940;DHT22;76505;46.706;12.340;2024-03-08T04:16:25;6.0;60.8
85940;DHT22;76505;46.706;12.340;2024-03-08T04:17:24;6.0;60.8
85940;DHT22;76505;46.706;12.340;2024-03-08T04:18:24;5.9;61.0
85940;DHT22;76505;46.706;12.340;2024-03-08T04:19:25;6.0;61.0
85940;DHT22;76505;46.706;12.340;2024-03-08T04:20:24;5.9;60.9
85940;DHT22;76505;46.706;12.340;2024-03-08T04:21:24;5.9;60.8
85940;DHT22;76505;46.706;12.340;2024-03-08T04:22:24;6.0;60.8
85940;DHT22;76505;46.706;12.340;2024-03-08T04:23:25;6.0;60.4
85940;DHT22;76505;46.706;12.340;2024-03-08T04:24:24;5.9;60.7
85940;DHT22;76505;46.706;12.340;2024-03-08T04:25:24;6.0;60.7
85940;DHT22;76505;46.706;12.340;2024-03-08T04:26:24;6.0;60.5
85940;DHT22;76505;46.706;12.340;2024-03-08T04:27:24;5.9;60.2
85940;DHT22;76505;46.706;12.340;2024-03-08T04:28:24;5.9;60.2
85940;DHT22;76505;46.706;12.340;2024-03-08T04:29:24;6.1;60.3
85940;DHT22;76505;46.706;12.340;2024-03-08T04:30:25;6.0;60.2
85940;DHT22;76505;46.706;12.340;2024-03-08T04:31:24;6.0;60.3
85940;DHT22;76505;46.706;12.340;2024-03-08T04:32:24;6.0;60.4
85940;DHT22;76505;46.706;12.340;2024-03-08T04:33:24;6.0;60.3
85940;DHT22;76505;46.706;12.340;2024-03-08T04:34:25;5.9;60.3
85940;DHT22;76505;46.706;12.340;2024-03-08T04:35:24;5.9;60.1
85940;DHT22;76505;46.706;12.340;2024-03-08T04:36:25;6.0;60.1
85940;DHT22;76505;46.706;12.340;2024-03-08T04:37:24;6.0;60.0
85940;DHT22;76505;46.706;12.340;2024-03-08T04:38:25;6.1;59.9
85940;DHT22;76505;46.706;12.340;2024-03-08T04:39:24;6.0;59.7
85940;DHT22;76505;46.706;12.340;2024-03-08T04:40:24;6.0;60.1
85940;DHT22;76505;46.706;12.340;2024-03-08T04:41:24;5.9;59.9
85940;DHT22;76505;46.706;12.340;2024-03-08T04:42:24;5.9;60.0
85940;DHT22;76505;46.706;12.340;2024-03-08T04:43:28;6.0;60.1
85940;DHT22;76505;46.706;12.340;2024-03-08T04:44:25;6.0;60.0
85940;DHT22;76505;46.706;12.340;2024-03-08T04:45:26;6.0;60.2
85940;DHT22;76505;46.706;12.340;2024-03-08T04:46:24;6.1;60.2
85940;DHT22;76505;46.706;12.340;2024-03-08T04:47:24;6.1;60.2
85940;DHT22;76505;46.706;12.340;2024-03-08T04:48:24;6.1;59.9
85940;DHT22;76505;46.706;12.340;2024-03-08T04:49:24;6.1;59.7
85940;DHT22;76505;46.706;12.340;2024-03-08T04:50:24;6.1;59.9
85940;DHT22;76505;46.706;12.340;2024-03-08T04:51:25;6.1;59.8
85940;DHT22;76505;46.706;12.340;2024-03-08T04:52:24;6.1;59.9
85940;DHT22;76505;46.706;12.340;2024-03-08T04:53:24;6.0;59.9
85940;DHT22;76505;46.706;12.340;2024-03-08T04:54:24;6.1;59.9
85940;DHT22;76505;46.706;12.340;2024-03-08T04:55:25;6.1;59.9
85940;DHT22;76505;46.706;12.340;2024-03-08T04:56:24;6.1;60.2
85940;DHT22;76505;46.706;12.340;2024-03-08T04:57:24;6.1;59.8
85940;DHT22;76505;46.706;12.340;2024-03-08T04:58:24;6.0;59.9
85940;DHT22;76505;46.706;12.340;2024-03-08T04:59:24;6.0;60.0
85940;DHT22;76505;46.706;12.340;2024-03-08T05:00:24;6.0;60.0
85940;DHT22;76505;46.706;12.340;2024-03-08T05:01:24;6.0;60.0
85940;DHT22;76505;46.706;12.340;2024-03-08T05:02:24;6.1;60.1
85940;DHT22;76505;46.706;12.340;2024-03-08T05:03:26;6.0;60.1
85940;DHT22;76505;46.706;12.340;2024-03-08T05:04:24;6.0;60.2
85940;DHT22;76505;46.706;12.340;2024-03-08T05:05:24;6.0;60.2
85940;DHT22;76505;46.706;12.340;2024-03-08T05:06:24;6.0;60.0
85940;DHT22;76505;46.706;12.340;2024-03-08T05:07:24;6.0;59.9
85940;DHT22;76505;46.706;12.340;2024-03-08T05:08:24;6.0;60.1
85940;DHT22;76505;46.706;12.340;2024-03-08T05:09:24;5.9;60.3
85940;DHT22;76505;46.706;12.340;2024-03-08T05:10:24;5.9;61.0
85940;DHT22;76505;46.706;12.340;2024-03-08T05:11:24;5.8;61.1
85940;DHT22;76505;46.706;12.340;2024-03-08T05:12:24;5.8;60.6
85940;DHT22;76505;46.706;12.340;2024-03-08T05:13:24;5.9;60.4
85940;DHT22;76505;46.706;12.340;2024-03-08T05:14:26;5.9;60.6
85940;DHT22;76505;46.706;12.340;2024-03-08T05:15:24;5.8;59.9
85940;DHT22;76505;46.706;12.340;2024-03-08T05:16:25;5.8;60.6
85940;DHT22;76505;46.706;12.340;2024-03-08T05:17:24;5.7;60.3
85940;DHT22;76505;46.706;12.340;2024-03-08T05:18:24;5.8;60.4
85940;DHT22;76505;46.706;12.340;2024-03-08T05:19:25;5.8;60.3
85940;DHT22;76505;46.706;12.340;2024-03-08T05:20:24;5.7;60.7
85940;DHT22;76505;46.706;12.340;2024-03-08T05:21:24;5.7;60.6
85940;DHT22;76505;46.706;12.340;2024-03-08T05:22:24;5.8;60.6
85940;DHT22;76505;46.706;12.340;2024-03-08T05:23:25;5.8;60.6
85940;DHT22;76505;46.706;12.340;2024-03-08T05:24:24;5.6;60.9
85940;DHT22;76505;46.706;12.340;2024-03-08T05:25:24;5.7;60.9
85940;DHT22;76505;46.706;12.340;2024-03-08T05:26:24;5.7;60.6
85940;DHT22;76505;46.706;12.340;2024-03-08T05:27:24;5.6;60.7
85940;DHT22;76505;46.706;12.340;2024-03-08T05:28:24;5.5;61.0
85940;DHT22;76505;46.706;12.340;2024-03-08T05:29:24;5.6;61.0
85940;DHT22;76505;46.706;12.340;2024-03-08T05:30:24;5.6;61.0
85940;DHT22;76505;46.706;12.340;2024-03-08T05:31:24;5.6;61.1
85940;DHT22;76505;46.706;12.340;2024-03-08T05:32:25;5.6;61.2
85940;DHT22;76505;46.706;12.340;2024-03-08T05:33:29;5.7;60.9
85940;DHT22;76505;46.706;12.340;2024-03-08T05:34:25;5.7;61.0
85940;DHT22;76505;46.706;12.340;2024-03-08T05:35:25;5.7;60.6
85940;DHT22;76505;46.706;12.340;2024-03-08T05:36:24;5.7;60.8
85940;DHT22;76505;46.706;12.340;2024-03-08T05:37:24;5.7;60.8
85940;DHT22;76505;46.706;12.340;2024-03-08T05:38:25;5.7;60.8
85940;DHT22;76505;46.706;12.340;2024-03-08T05:39:24;5.7;60.7
85940;DHT22;76505;46.706;12.340;2024-03-08T05:40:24;5.7;60.5
85940;DHT22;76505;46.706;12.340;2024-03-08T05:41:25;5.7;60.8
85940;DHT22;76505;46.706;12.340;2024-03-08T05:42:24;5.7;60.9
85940;DHT22;76505;46.706;12.340;2024-03-08T05:43:25;5.8;60.8
85940;DHT22;76505;46.706;12.340;2024-03-08T05:44:24;5.7;60.9
85940;DHT22;76505;46.706;12.340;2024-03-08T05:45:25;5.8;60.8
85940;DHT22;76505;46.706;12.340;2024-03-08T05:46:24;5.8;60.4
85940;DHT22;76505;46.706;12.340;2024-03-08T05:47:24;5.9;60.5
85940;DHT22;76505;46.706;12.340;2024-03-08T05:48:25;5.8;60.5
85940;DHT22;76505;46.706;12.340;2024-03-08T05:49:25;5.8;59.9
85940;DHT22;76505;46.706;12.340;2024-03-08T05:50:24;5.8;60.4
85940;DHT22;76505;46.706;12.340;2024-03-08T05:51:25;5.9;60.4
85940;DHT22;76505;46.706;12.340;2024-03-08T05:52:24;5.9;60.4
85940;DHT22;76505;46.706;12.340;2024-03-08T05:53:24;5.8;60.6
85940;DHT22;76505;46.706;12.340;2024-03-08T05:54:25;5.7;60.5
85940;DHT22;76505;46.706;12.340;2024-03-08T05:55:25;5.8;60.2
85940;DHT22;76505;46.706;12.340;2024-03-08T05:56:24;5.8;60.5
85940;DHT22;76505;46.706;12.340;2024-03-08T05:57:24;5.8;60.4
85940;DHT22;76505;46.706;12.340;2024-03-08T05:58:24;5.7;60.3
85940;DHT22;76505;46.706;12.340;2024-03-08T05:59:24;5.8;60.5
85940;DHT22;76505;46.706;12.340;2024-03-08T06:00:26;5.7;60.3
85940;DHT22;76505;46.706;12.340;2024-03-08T06:01:24;5.8;60.4
85940;DHT22;76505;46.706;12.340;2024-03-08T06:02:24;5.8;60.3
85940;DHT22;76505;46.706;12.340;2024-03-08T06:03:24;5.7;60.3
85940;DHT22;76505;46.706;12.340;2024-03-08T06:04:24;5.8;60.1
85940;DHT22;76505;46.706;12.340;2024-03-08T06:05:25;5.8;59.8
85940;DHT22;76505;46.706;12.340;2024-03-08T06:06:25;5.9;60.1
85940;DHT22;76505;46.706;12.340;2024-03-08T06:07:25;5.9;60.1
85940;DHT22;76505;46.706;12.340;2024-03-08T06:08:30;5.9;59.6
85940;DHT22;76505;46.706;12.340;2024-03-08T06:09:25;5.8;60.2
85940;DHT22;76505;46.706;12.340;2024-03-08T06:10:24;5.9;60.4
85940;DHT22;76505;46.706;12.340;2024-03-08T06:11:24;5.9;59.8
85940;DHT22;76505;46.706;12.340;2024-03-08T06:12:29;5.8;60.2
85940;DHT22;76505;46.706;12.340;2024-03-08T06:13:24;5.9;60.2
85940;DHT22;76505;46.706;12.340;2024-03-08T06:14:24;5.9;60.0
85940;DHT22;76505;46.706;12.340;2024-03-08T06:15:24;5.9;59.9
85940;DHT22;76505;46.706;12.340;2024-03-08T06:16:25;5.9;59.7
85940;DHT22;76505;46.706;12.340;2024-03-08T06:17:26;5.9;59.9
85940;DHT22;76505;46.706;12.340;2024-03-08T06:18:24;6.0;59.9
85940;DHT22;76505;46.706;12.340;2024-03-08T06:19:24;6.0;59.5
85940;DHT22;76505;46.706;12.340;2024-03-08T06:20:26;5.9;59.4
85940;DHT22;76505;46.706;12.340;2024-03-08T06:21:26;5.9;59.7
85940;DHT22;76505;46.706;12.340;2024-03-08T06:22:24;5.9;59.7
85940;DHT22;76505;46.706;12.340;2024-03-08T06:23:24;5.9;59.5
85940;DHT22;76505;46.706;12.340;2024-03-08T06:24:24;5.9;59.3
85940;DHT22;76505;46.706;12.340;2024-03-08T06:25:25;5.8;59.6
85940;DHT22;76505;46.706;12.340;2024-03-08T06:26:25;5.8;59.3
85940;DHT22;76505;46.706;12.340;2024-03-08T06:27:26;5.9;59.0
85940;DHT22;76505;46.706;12.340;2024-03-08T06:28:24;5.8;59.1
85940;DHT22;76505;46.706;12.340;2024-03-08T06:29:24;5.7;59.5
85940;DHT22;76505;46.706;12.340;2024-03-08T06:30:26;5.8;59.4
85940;DHT22;76505;46.706;12.340;2024-03-08T06:31:24;5.8;59.5